createdAt,value
2018-12-09T00:04:00.144Z,67.47
2018-12-09T00:09:02.919Z,66.31
2018-12-09T00:14:05.505Z,69.75
2018-12-09T00:19:08.865Z,78.02
2018-12-09T00:24:11.474Z,80.68
2018-12-09T00:29:14.055Z,82.19
2018-12-09T00:34:16.608Z,81.80
2018-12-09T00:39:20.097Z,81.07
2018-12-09T00:44:22.658Z,83.64
2018-12-09T00:49:25.184Z,84.80
2018-12-09T00:54:27.826Z,82.61
2018-12-09T00:59:30.433Z,82.88
2018-12-09T01:04:33.026Z,80.70
2018-12-09T01:09:36.746Z,81.76
2018-12-09T01:14:39.284Z,81.96
2018-12-09T01:19:41.937Z,76.82
2018-12-09T01:24:44.577Z,74.93
2018-12-09T01:29:47.160Z,75.36
2018-12-09T01:34:49.827Z,73.67
2018-12-09T01:39:52.376Z,73.75
2018-12-09T01:44:55.725Z,71.69
2018-12-09T01:49:59.078Z,70.54
2018-12-09T01:55:02.515Z,70.97
2018-12-09T02:00:05.453Z,70.89
2018-12-09T02:05:08.786Z,70.40
2018-12-09T02:10:11.969Z,70.20
2018-12-09T02:15:14.598Z,70.70
2018-12-09T02:20:17.861Z,69.93
2018-12-09T02:25:21.117Z,70.51
2018-12-09T02:30:23.816Z,70.78
2018-12-09T02:35:26.372Z,70.92
2018-12-09T02:40:29.603Z,70.25
2018-12-09T02:45:32.153Z,70.86
2018-12-09T02:50:34.911Z,69.19
2018-12-09T02:55:38.819Z,68.94
2018-12-09T03:00:41.445Z,69.70
2018-12-09T03:05:44.155Z,69.33
2018-12-09T03:10:46.852Z,69.45
2018-12-09T03:15:49.830Z,70.45
2018-12-09T03:20:52.496Z,70.03
2018-12-09T03:25:55.614Z,70.31
2018-12-09T03:30:58.223Z,70.20
2018-12-09T03:36:01.092Z,69.57
2018-12-09T03:41:03.733Z,69.85
2018-12-09T03:46:06.297Z,70.17
2018-12-09T03:51:08.989Z,69.33
2018-12-09T03:56:11.880Z,69.40
2018-12-09T04:01:14.617Z,69.00
2018-12-09T04:06:17.797Z,68.11
2018-12-09T04:11:20.628Z,68.26
2018-12-09T04:16:23.495Z,70.27
2018-12-09T04:21:26.048Z,74.02
2018-12-09T04:26:28.616Z,76.09
2018-12-09T04:31:31.164Z,77.66
2018-12-09T04:36:34.525Z,77.70
2018-12-09T04:41:37.075Z,74.94
2018-12-09T04:46:39.648Z,75.00
2018-12-09T04:51:57.152Z,74.45
2018-12-09T04:56:59.829Z,74.32
2018-12-09T05:02:02.886Z,75.12
2018-12-09T05:07:05.455Z,75.93
2018-12-09T05:12:09.146Z,78.67
2018-12-09T05:17:11.706Z,80.73
2018-12-09T05:22:14.613Z,79.12
2018-12-09T05:27:17.744Z,78.70
2018-12-09T05:32:20.684Z,77.89
2018-12-09T05:37:23.270Z,78.38
2018-12-09T05:42:26.402Z,77.65
2018-12-09T05:47:29.207Z,77.61
2018-12-09T05:52:32.006Z,77.97
2018-12-09T05:57:35.057Z,78.85
2018-12-09T06:02:50.591Z,80.06
2018-12-09T06:07:53.168Z,81.44
2018-12-09T06:12:55.759Z,79.78
2018-12-09T06:17:58.387Z,80.39
2018-12-09T06:23:00.953Z,80.88
2018-12-09T06:28:03.520Z,80.20
2018-12-09T06:33:06.089Z,80.46
2018-12-09T06:38:08.680Z,79.93
2018-12-09T06:43:11.260Z,80.99
2018-12-09T06:48:13.930Z,81.51
2018-12-09T06:53:16.543Z,82.11
2018-12-09T06:58:19.092Z,81.68
2018-12-09T07:03:21.714Z,84.20
2018-12-09T07:08:24.272Z,84.07
2018-12-09T07:13:26.848Z,82.15
2018-12-09T07:18:29.445Z,82.48
2018-12-09T07:23:32.061Z,80.22
2018-12-09T07:28:34.758Z,78.98
2018-12-09T07:33:37.542Z,77.98
2018-12-09T07:38:40.153Z,77.64
2018-12-09T07:43:42.730Z,77.87
2018-12-09T07:48:45.347Z,77.22
2018-12-09T07:53:48.782Z,76.37
2018-12-09T07:58:51.389Z,76.20
2018-12-09T08:03:53.968Z,76.17
2018-12-09T08:08:56.988Z,75.08
2018-12-09T08:13:59.796Z,75.23
2018-12-09T08:19:02.332Z,74.70
2018-12-09T08:24:05.320Z,74.74
2018-12-09T08:29:09.352Z,75.25
2018-12-09T08:34:11.927Z,74.45
2018-12-09T08:39:14.760Z,73.03
2018-12-09T08:44:17.364Z,74.43
2018-12-09T08:49:20.097Z,72.41
2018-12-09T08:54:22.739Z,72.67
2018-12-09T08:59:25.395Z,72.00
2018-12-09T09:04:28.042Z,72.44
2018-12-09T09:09:30.841Z,73.21
2018-12-09T09:14:33.493Z,72.64
2018-12-09T09:19:36.090Z,72.96
2018-12-09T09:24:38.665Z,73.27
2018-12-09T09:29:42.021Z,73.17
2018-12-09T09:34:45.239Z,73.79
2018-12-09T09:39:47.830Z,73.51
2018-12-09T09:44:51.024Z,73.30
2018-12-09T09:49:53.629Z,73.94
2018-12-09T09:54:57.094Z,73.04
2018-12-09T10:00:00.050Z,73.36
2018-12-09T10:05:02.752Z,73.27
2018-12-09T10:10:05.995Z,72.80
2018-12-09T10:15:08.670Z,72.52
2018-12-09T10:20:11.292Z,72.20
2018-12-09T10:25:13.888Z,70.73
2018-12-09T10:30:16.738Z,71.39
2018-12-09T10:35:19.289Z,72.66
2018-12-09T10:40:21.944Z,72.42
2018-12-09T10:45:25.220Z,71.29
2018-12-09T10:50:27.780Z,71.16
2018-12-09T10:55:30.358Z,70.61
2018-12-09T11:00:38.742Z,70.90
2018-12-09T11:05:41.315Z,69.41
2018-12-09T11:10:44.116Z,69.76
2018-12-09T11:15:47.399Z,70.79
2018-12-09T11:20:49.999Z,69.36
2018-12-09T11:25:52.557Z,68.50
2018-12-09T11:30:55.106Z,68.22
2018-12-09T11:35:57.733Z,68.05
2018-12-09T11:41:01.115Z,68.35
2018-12-09T11:46:03.662Z,68.63
2018-12-09T11:51:06.272Z,68.61
2018-12-09T11:56:08.860Z,69.00
2018-12-09T12:01:12.125Z,68.67
2018-12-09T12:06:14.737Z,69.32
2018-12-09T12:11:17.299Z,69.58
2018-12-09T12:16:19.873Z,70.36
2018-12-09T12:21:22.470Z,71.24
2018-12-09T12:26:25.042Z,71.34
2018-12-09T12:31:27.584Z,73.23
2018-12-09T12:36:30.212Z,72.87
2018-12-09T12:41:32.877Z,73.33
2018-12-09T12:46:35.565Z,75.95
2018-12-09T12:51:38.401Z,75.74
2018-12-09T12:56:41.921Z,77.26
2018-12-09T13:01:44.624Z,77.81
2018-12-09T13:06:47.224Z,77.38
2018-12-09T13:11:49.987Z,76.58
2018-12-09T13:16:53.370Z,77.45
2018-12-09T13:21:55.976Z,76.55
2018-12-09T13:26:58.624Z,76.86
2018-12-09T13:32:01.316Z,75.75
2018-12-09T13:37:03.924Z,76.97
2018-12-09T13:42:06.561Z,75.19
2018-12-09T13:47:09.130Z,74.98
2018-12-09T13:52:11.795Z,74.13
2018-12-09T13:57:14.380Z,74.66
2018-12-09T14:02:18.052Z,78.21
2018-12-09T14:07:20.641Z,79.60
2018-12-09T14:12:23.181Z,77.90
2018-12-09T14:17:25.748Z,78.93
2018-12-09T14:22:28.321Z,79.62
2018-12-09T14:27:30.901Z,80.64
2018-12-09T14:32:33.638Z,80.40
2018-12-09T14:37:36.249Z,80.26
2018-12-09T14:42:39.130Z,79.39
2018-12-09T14:47:41.666Z,77.15
2018-12-09T14:52:44.575Z,77.71
2018-12-09T14:57:47.128Z,78.74
2018-12-09T15:02:49.766Z,77.08
2018-12-09T15:07:52.329Z,76.66
2018-12-09T15:12:54.938Z,76.15
2018-12-09T15:17:57.579Z,75.42
2018-12-09T15:23:00.319Z,74.19
2018-12-09T15:28:03.746Z,74.72
2018-12-09T15:33:06.434Z,74.82
2018-12-09T15:38:09.004Z,74.67
2018-12-09T15:43:11.576Z,74.58
2018-12-09T15:48:14.567Z,75.69
2018-12-09T15:53:17.121Z,77.42
2018-12-09T15:58:20.124Z,77.72
2018-12-09T16:03:22.885Z,77.89
2018-12-09T16:08:25.416Z,78.37
2018-12-09T16:13:28.176Z,78.69
2018-12-09T16:18:30.809Z,76.65
2018-12-09T16:23:33.376Z,76.40
2018-12-09T16:28:35.916Z,75.67
2018-12-09T16:33:39.189Z,76.38
2018-12-09T16:38:42.486Z,76.13
2018-12-09T16:43:45.765Z,78.09
2018-12-09T16:48:48.357Z,77.86
2018-12-09T16:53:50.957Z,75.74
2018-12-09T16:58:53.651Z,75.04
2018-12-09T17:03:56.234Z,76.17
2018-12-09T17:08:58.873Z,75.49
2018-12-09T17:14:01.433Z,75.05
2018-12-09T17:19:04.091Z,75.94
2018-12-09T17:24:06.695Z,73.74
2018-12-09T17:29:10.072Z,75.07
2018-12-09T17:34:12.660Z,75.29
2018-12-09T17:39:15.972Z,73.87
2018-12-09T17:44:18.565Z,75.01
2018-12-09T17:49:21.296Z,74.80
2018-12-09T17:54:24.530Z,73.67
2018-12-09T17:59:27.087Z,73.84
2018-12-09T18:04:29.786Z,73.57
2018-12-09T18:09:32.328Z,72.83
2018-12-09T18:14:34.917Z,74.49
2018-12-09T18:19:37.590Z,75.22
2018-12-09T18:24:40.248Z,74.62
2018-12-09T18:29:42.875Z,75.77
2018-12-09T18:34:46.716Z,74.92
2018-12-09T18:39:49.770Z,73.88
2018-12-09T18:44:52.869Z,74.96
2018-12-09T18:49:56.179Z,74.09
2018-12-09T18:54:59.268Z,74.25
2018-12-09T19:00:02.598Z,74.50
2018-12-09T19:05:07.160Z,73.80
2018-12-09T19:10:10.404Z,73.20
2018-12-09T19:15:13.861Z,74.79
2018-12-09T19:20:17.660Z,76.77
2018-12-09T19:25:20.711Z,75.36
2018-12-09T19:30:24.518Z,77.20
2018-12-09T19:35:27.271Z,76.69
2018-12-09T19:40:30.836Z,77.81
2018-12-09T19:45:33.738Z,76.73
2018-12-09T19:50:38.268Z,76.85
2018-12-09T19:55:41.602Z,77.40
2018-12-09T20:00:44.691Z,77.66
2018-12-09T20:05:47.701Z,81.28
2018-12-09T20:10:51.524Z,82.72
2018-12-09T20:15:54.138Z,83.70
2018-12-09T20:20:56.850Z,83.58
2018-12-09T20:25:59.882Z,83.06
2018-12-09T20:31:03.216Z,80.21
2018-12-09T20:36:05.781Z,80.48
2018-12-09T20:41:09.023Z,79.55
2018-12-09T20:46:11.592Z,79.89
2018-12-09T20:51:14.556Z,82.54
2018-12-09T20:56:17.182Z,83.62
2018-12-09T21:01:19.765Z,83.79
2018-12-09T21:06:22.495Z,84.83
2018-12-09T21:11:25.138Z,84.82
2018-12-09T21:16:27.713Z,84.55
2018-12-09T21:21:30.280Z,85.30
2018-12-09T21:26:33.007Z,84.99
2018-12-09T21:31:37.619Z,85.38
2018-12-09T21:36:40.169Z,85.52
2018-12-09T21:41:42.703Z,82.90
2018-12-09T21:46:45.275Z,83.24
2018-12-09T21:51:47.833Z,82.19
2018-12-09T21:56:50.727Z,81.92
2018-12-09T22:01:53.315Z,81.71
2018-12-09T22:06:56.732Z,79.22
2018-12-09T22:11:59.309Z,78.78
2018-12-09T22:17:01.984Z,77.37
2018-12-09T22:22:04.895Z,76.38
2018-12-09T22:27:08.426Z,76.60
2018-12-09T22:32:11.087Z,75.11
2018-12-09T22:37:13.873Z,75.74
2018-12-09T22:42:17.086Z,76.27
2018-12-09T22:47:19.738Z,76.30
2018-12-09T22:52:22.304Z,79.18
2018-12-09T22:57:24.926Z,78.24
2018-12-09T23:02:33.132Z,78.44
2018-12-09T23:07:41.160Z,78.56
2018-12-09T23:12:43.825Z,78.10
2018-12-09T23:17:46.406Z,77.37
2018-12-09T23:22:49.626Z,76.46
2018-12-09T23:27:52.216Z,75.83
2018-12-09T23:32:54.813Z,75.10
2018-12-09T23:37:57.421Z,74.21
2018-12-09T23:43:00.010Z,74.23
2018-12-09T23:48:03.556Z,73.83
2018-12-09T23:53:06.323Z,73.56
2018-12-09T23:58:08.899Z,74.28
